Time;durP1;ratioP1;P1;durP2;ratioP2;P2;SDS_P1;SDS_P2;PMS_P1;PMS_P2;Temp;Humidity;BMP_temperature;BMP_pressure;BME280_temperature;BME280_humidity;BME280_pressure;Samples;Min_cycle;Max_cycle;Signal;HPM_P1;HPM_P2
2022/12/25 00:01:56;;;;;;;66.68;28.73;;;;;;;5.34;100.00;67361.16;4991984;28;20050;-83
2022/12/25 00:04:21;;;;;;;66.65;30.05;;;;;;;;;;4976037;28;20043;-84
2022/12/25 00:06:46;;;;;;;63.60;29.73;;;;;;;5.56;100.00;67387.53;4975562;28;20066;-83
2022/12/25 00:09:12;;;;;;;64.05;29.50;;;;;;;5.42;100.00;67372.28;4985279;28;20526;-83
2022/12/25 00:11:37;;;;;;;75.03;34.95;;;;;;;;;;4977958;28;20042;-83
2022/12/25 00:14:02;;;;;;;71.55;31.92;;;;;;;;;;4995628;28;20065;-84
2022/12/25 00:16:28;;;;;;;69.15;31.73;;;;;;;;;;4997582;28;20054;-83
2022/12/25 00:18:55;;;;;;;72.53;32.40;;;;;;;5.29;100.00;67357.59;4999602;28;20038;-83
2022/12/25 00:21:21;;;;;;;57.58;28.10;;;;;;;5.24;100.00;67351.94;4977825;28;20043;-84
2022/12/25 00:23:46;;;;;;;67.07;28.65;;;;;;;5.18;100.00;67345.75;4998334;28;20046;-83
2022/12/25 00:26:16;;;;;;;60.67;27.42;;;;;;;5.23;100.00;67351.38;4990017;28;20042;-83
2022/12/25 00:28:42;;;;;;;56.95;26.48;;;;;;;;;;4987222;28;20046;-83
2022/12/25 00:31:16;;;;;;;55.67;26.40;;;;;;;5.08;100.00;67335.00;4994514;28;20051;-83
2022/12/25 00:33:43;;;;;;;58.75;28.20;;;;;;;5.19;100.00;67352.69;4989218;28;20793;-83
2022/12/25 00:36:09;;;;;;;52.70;24.92;;;;;;;;;;4998399;28;20081;-82
2022/12/25 00:38:35;;;;;;;67.60;28.33;;;;;;;;;;4979622;28;20502;-83
2022/12/25 00:44:06;;;;;;;56.45;29.95;;;;;;;5.32;100.00;67360.97;4984279;28;20442;-84
2022/12/25 00:46:31;;;;;;;56.70;29.17;;;;;;;5.32;100.00;67360.97;4986190;28;20521;-83
2022/12/25 00:48:57;;;;;;;62.55;30.55;;;;;;;;;;4986297;28;20031;-83
2022/12/25 00:51:23;;;;;;;65.38;30.10;;;;;;;5.49;100.00;67380.19;4973613;28;20713;-83
2022/12/25 00:53:48;;;;;;;64.55;27.85;;;;;;;;;;4972442;28;20125;-84
2022/12/25 00:56:14;;;;;;;59.53;26.20;;;;;;;5.66;100.00;67399.38;4985798;28;20041;-84
2022/12/25 00:58:39;;;;;;;64.05;32.83;;;;;;;5.74;100.00;67407.31;4983752;28;20137;-83
2022/12/25 01:01:04;;;;;;;67.68;33.33;;;;;;;5.78;100.00;67411.81;4984593;28;20104;-84
2022/12/25 01:03:30;;;;;;;64.45;32.08;;;;;;;5.80;100.00;67419.38;4980241;28;20399;-83
2022/12/25 01:05:58;;;;;;;62.03;29.52;;;;;;;5.85;100.00;67419.75;4982352;28;20082;-83
2022/12/25 01:08:25;;;;;;;60.13;29.13;;;;;;;5.94;100.00;67429.38;4980968;28;20053;-83
2022/12/25 01:11:04;;;;;;;63.40;27.25;;;;;;;5.95;100.00;67430.50;4983109;28;20038;-83
2022/12/25 01:13:31;;;;;;;53.85;24.90;;;;;;;6.02;100.00;67438.97;4998834;28;20564;-83
2022/12/25 01:15:57;;;;;;;56.83;26.63;;;;;;;6.10;100.00;67447.47;4981285;28;20070;-83
2022/12/25 01:18:23;;;;;;;51.70;24.35;;;;;;;;;;4981715;28;20121;-81
2022/12/25 01:20:48;;;;;;;53.58;22.55;;;;;;;6.19;100.00;67457.06;4977367;28;20092;-83
2022/12/25 01:23:14;;;;;;;56.22;23.33;;;;;;;;;;4981509;28;20058;-82
2022/12/25 01:25:39;;;;;;;63.70;25.65;;;;;;;;;;4974441;28;20034;-82
2022/12/25 01:28:04;;;;;;;45.47;23.77;;;;;;;6.30;100.00;67470.06;4980240;28;20046;-81
2022/12/25 01:30:30;;;;;;;48.40;22.58;;;;;;;;;;4979474;28;20121;-82
2022/12/25 01:32:55;;;;;;;58.67;26.23;;;;;;;;;;4980103;28;20065;-81
2022/12/25 01:35:21;;;;;;;59.90;23.20;;;;;;;6.41;100.00;67481.94;4980882;28;20076;-82
2022/12/25 01:37:46;;;;;;;55.85;23.35;;;;;;;6.44;100.00;67490.03;4982454;28;20042;-81
2022/12/25 01:40:12;;;;;;;49.17;23.70;;;;;;;6.45;100.00;67486.47;4982184;28;20074;-82
2022/12/25 01:42:37;;;;;;;47.33;21.90;;;;;;;;;;4979147;28;20054;-82
2022/12/25 01:45:32;;;;;;;57.88;25.35;;;;;;;6.52;100.00;67491.72;4983933;28;20039;-82
2022/12/25 01:47:59;;;;;;;51.17;22.38;;;;;;;6.55;100.00;67497.75;4981869;28;20034;-82
2022/12/25 01:50:25;;;;;;;48.60;21.40;;;;;;;6.59;100.00;67501.16;4978082;28;20104;-82
2022/12/25 01:52:52;;;;;;;48.83;23.77;;;;;;;6.60;100.00;67502.28;4978800;28;20035;-83
2022/12/25 01:55:18;;;;;;;44.90;23.90;;;;;;;6.59;100.00;67501.16;4976437;28;20494;-81
2022/12/25 01:57:43;;;;;;;47.95;25.58;;;;;;;6.62;100.00;67504.53;4985511;28;20044;-84
2022/12/25 02:00:12;;;;;;;59.08;24.63;;;;;;;6.63;100.00;67505.69;4987861;28;20034;-83
2022/12/25 02:02:40;;;;;;;57.17;26.37;;;;;;;6.64;100.00;67506.81;4987746;28;20038;-84
2022/12/25 02:05:17;;;;;;;48.42;25.05;;;;;;;6.65;100.00;67508.50;4985090;28;20121;-83
2022/12/25 02:07:45;;;;;;;56.45;24.90;;;;;;;6.65;100.00;67507.94;4987501;28;20243;-83
2022/12/25 02:10:11;;;;;;;48.17;25.95;;;;;;;6.64;100.00;67512.09;4989522;28;20038;-82
2022/12/25 02:12:37;;;;;;;44.28;23.70;;;;;;;6.65;100.00;67507.94;4988881;28;20035;-83
2022/12/25 02:15:09;;;;;;;52.92;23.25;;;;;;;6.64;100.00;67506.81;4990158;28;20129;-83
2022/12/25 02:17:56;;;;;;;57.40;27.05;;;;;;;6.68;100.00;67511.34;4995472;28;20035;-83
2022/12/25 02:20:34;;;;;;;53.42;25.73;;;;;;;;;;4994551;28;20098;-84
2022/12/25 02:23:14;;;;;;;51.22;24.77;;;;;;;;;;4993397;28;20062;-85
2022/12/25 02:25:48;;;;;;;50.35;23.70;;;;;;;;;;4988478;28;20109;-83
2022/12/25 02:28:51;;;;;;;42.45;24.77;;;;;;;6.75;100.00;67516.59;4985288;28;20042;-83
2022/12/25 02:31:38;;;;;;;51.03;23.27;;;;;;;6.76;100.00;67520.38;4978413;28;20042;-83
2022/12/25 02:34:03;;;;;;;48.42;24.00;;;;;;;;;;4986929;28;20042;-84
2022/12/25 02:36:41;;;;;;;44.83;25.05;;;;;;;;;;4975247;28;20050;-84
2022/12/25 02:39:57;;;;;;;50.33;24.08;;;;;;;;;;5005145;28;20050;-83
2022/12/25 02:42:03;;;;;;;48.25;22.33;;;;;;;6.81;100.00;67526.03;5006322;28;20072;-84
2022/12/25 03:07:05;;;;;;;49.83;24.65;;;;;;;6.97;100.00;67549.44;4978738;28;20053;-83
2022/12/25 03:12:34;;;;;;;37.30;22.08;;;;;;;7.03;100.00;67555.09;4984435;28;20053;-84
2022/12/25 03:17:44;;;;;;;40.15;21.38;;;;;;;7.12;100.00;67565.28;4987055;28;20628;-83
2022/12/25 03:28:23;;;;;;;43.30;20.88;;;;;;;7.18;100.00;67567.31;4982774;28;20053;-82
2022/12/25 03:31:12;;;;;;;37.55;21.08;;;;;;;7.23;100.00;67573.00;4983854;28;20042;-82
2022/12/25 04:37:59;;;;;;;22.30;15.05;;;;;;;7.79;100.00;67634.09;5011934;28;20151;-85
2022/12/25 04:40:24;;;;;;;32.90;17.65;;;;;;;7.81;100.00;67631.06;5010231;28;20489;-83
2022/12/25 04:42:50;;;;;;;28.65;15.48;;;;;;;;;;5012718;28;20065;-84
2022/12/25 04:45:15;;;;;;;26.98;15.00;;;;;;;7.85;100.00;67638.81;4995942;28;20039;-84
2022/12/25 04:47:41;;;;;;;25.30;15.50;;;;;;;7.87;100.00;67643.16;4985524;28;20105;-85
2022/12/25 04:50:06;;;;;;;24.20;16.17;;;;;;;;;;4975854;28;20094;-84
2022/12/25 04:52:37;;;;;;;28.42;15.40;;;;;;;7.85;100.00;67640.91;4977544;28;20046;-84
2022/12/25 04:55:03;;;;;;;29.58;16.45;;;;;;;7.89;100.00;67646.00;4980957;28;20121;-84
2022/12/25 04:57:29;;;;;;;26.13;16.98;;;;;;;7.89;100.00;67643.34;4983850;28;20140;-84
2022/12/25 04:59:54;;;;;;;28.58;14.93;;;;;;;;;;4990456;28;20062;-84
2022/12/25 05:02:19;;;;;;;28.63;15.45;;;;;;;7.94;100.00;67651.09;4988846;28;20057;-85
2022/12/25 05:04:45;;;;;;;25.05;14.40;;;;;;;7.93;100.00;67649.97;4993934;28;20081;-85
2022/12/25 05:07:10;;;;;;;24.02;15.57;;;;;;;7.94;100.00;67647.88;4993304;28;20418;-85
2022/12/25 05:09:40;;;;;;;24.92;13.65;;;;;;;7.97;100.00;67651.25;4986867;28;20071;-84
2022/12/25 05:12:08;;;;;;;28.33;14.82;;;;;;;7.97;100.00;67651.84;4995592;28;20034;-84
2022/12/25 05:14:34;;;;;;;29.63;14.80;;;;;;;;;;5015012;28;20049;-84
2022/12/25 05:16:59;;;;;;;31.15;17.55;;;;;;;7.97;100.00;67659.22;5019459;28;20050;-85
2022/12/25 05:19:25;;;;;;;28.75;16.48;;;;;;;7.95;100.00;67649.00;5009933;28;20490;-83
2022/12/25 05:21:51;;;;;;;23.52;15.25;;;;;;;7.95;100.00;67651.66;5003445;28;20084;-83
2022/12/25 05:24:17;;;;;;;28.77;14.88;;;;;;;7.96;100.00;67644.84;5005071;28;20403;-84
2022/12/25 05:26:42;;;;;;;22.80;15.35;;;;;;;;;;4991348;28;20050;-84
2022/12/25 05:29:07;;;;;;;25.33;15.38;;;;;;;7.96;100.00;67652.78;4977839;28;20513;-83
2022/12/25 05:31:32;;;;;;;26.00;15.57;;;;;;;;;;4994084;28;20633;-84
2022/12/25 05:33:58;;;;;;;27.70;15.00;;;;;;;;;;4990719;28;20505;-84
2022/12/25 05:36:23;;;;;;;25.83;14.18;;;;;;;7.95;100.00;67651.66;4989213;28;20296;-84
2022/12/25 05:38:49;;;;;;;21.42;14.70;;;;;;;7.94;100.00;67651.09;4989014;28;20038;-84
2022/12/25 05:41:14;;;;;;;26.80;15.95;;;;;;;7.91;100.00;67648.28;4981306;28;20057;-84
2022/12/25 05:43:40;;;;;;;31.30;14.98;;;;;;;7.88;100.00;67644.28;4986625;28;20107;-84
2022/12/25 05:46:07;;;;;;;26.17;14.57;;;;;;;7.88;100.00;67644.28;4986859;28;20720;-85
2022/12/25 05:48:35;;;;;;;25.08;14.77;;;;;;;7.85;100.00;67641.47;4971711;28;20051;-84
2022/12/25 05:51:09;;;;;;;23.85;13.75;;;;;;;7.85;100.00;67641.47;5001057;28;20045;-84
2022/12/25 05:53:35;;;;;;;23.95;15.77;;;;;;;7.83;100.00;67639.22;4987223;28;20046;-84
2022/12/25 05:56:02;;;;;;;29.33;14.77;;;;;;;;;;4981446;28;20077;-84
2022/12/25 05:58:28;;;;;;;26.70;15.07;;;;;;;7.84;100.00;67639.78;4979246;28;20069;-83
2022/12/25 06:00:53;;;;;;;24.88;13.45;;;;;;;;;;4987701;28;20030;-84
2022/12/25 06:03:19;;;;;;;25.58;15.82;;;;;;;7.86;100.00;67636.75;4988823;28;20126;-84
2022/12/25 06:05:44;;;;;;;25.70;14.48;;;;;;;7.82;100.00;67635.41;4984559;28;20039;-84
2022/12/25 06:08:09;;;;;;;26.75;15.63;;;;;;;7.84;100.00;67639.78;4969980;28;20034;-84
2022/12/25 06:10:35;;;;;;;29.10;14.93;;;;;;;7.87;100.00;67643.16;4968967;28;20041;-84
2022/12/25 06:13:00;;;;;;;25.27;13.82;;;;;;;7.87;100.00;67640.50;4986181;28;20708;-84
2022/12/25 06:15:26;;;;;;;21.25;14.05;;;;;;;7.86;100.00;67642.59;4972998;28;20102;-83
2022/12/25 06:17:51;;;;;;;24.30;14.55;;;;;;;;;;4983264;28;20045;-83
2022/12/25 06:20:16;;;;;;;23.27;14.23;;;;;;;7.88;100.00;67644.88;4979787;28;20057;-82
2022/12/25 06:22:42;;;;;;;23.63;13.73;;;;;;;7.90;100.00;67647.13;4971086;28;20399;-83
2022/12/25 06:25:08;;;;;;;21.17;13.07;;;;;;;7.88;100.00;67644.88;4970000;28;20069;-82
2022/12/25 06:27:33;;;;;;;22.30;15.20;;;;;;;;;;4984593;28;20050;-83
2022/12/25 06:29:58;;;;;;;20.48;13.43;;;;;;;7.84;100.00;67640.34;4987514;28;20046;-84
2022/12/25 06:32:24;;;;;;;23.67;12.13;;;;;;;7.85;100.00;67638.25;4979543;28;20096;-84
2022/12/25 06:34:49;;;;;;;17.60;11.82;;;;;;;7.88;100.00;67644.88;4985173;28;20100;-82
2022/12/25 06:37:15;;;;;;;21.77;12.25;;;;;;;7.89;100.00;67643.34;4976563;28;20070;-83
2022/12/25 06:39:40;;;;;;;18.73;13.25;;;;;;;7.90;100.00;67646.56;4979958;28;20512;-84
2022/12/25 06:42:05;;;;;;;22.15;12.73;;;;;;;7.93;100.00;67649.41;4980459;28;20047;-82
2022/12/25 06:44:32;;;;;;;21.23;13.18;;;;;;;7.92;100.00;67646.19;4981606;28;20061;-83
2022/12/25 06:46:58;;;;;;;20.13;12.23;;;;;;;7.91;100.00;67647.69;4971374;28;20058;-82
2022/12/25 06:49:23;;;;;;;21.83;12.50;;;;;;;7.91;100.00;67648.28;4981469;28;20042;-83
2022/12/25 06:51:48;;;;;;;21.85;12.88;;;;;;;7.90;100.00;67641.81;4989536;28;20042;-83
2022/12/25 06:54:14;;;;;;;19.15;13.02;;;;;;;7.89;100.00;67646.00;4984089;28;20130;-82
2022/12/25 06:56:39;;;;;;;19.05;13.88;;;;;;;7.91;100.00;67645.63;4987504;28;20054;-84
2022/12/25 06:59:07;;;;;;;22.73;14.20;;;;;;;7.93;100.00;67649.97;4984001;28;20050;-83
2022/12/25 07:01:37;;;;;;;25.10;13.63;;;;;;;7.94;100.00;67651.09;4976191;28;20564;-84
2022/12/25 07:04:10;;;;;;;18.17;11.77;;;;;;;7.96;100.00;67650.13;4979048;28;20545;-83
2022/12/25 07:06:35;;;;;;;20.30;13.23;;;;;;;7.99;100.00;67656.19;4972787;28;20061;-84
2022/12/25 07:09:01;;;;;;;18.50;11.85;;;;;;;7.98;100.00;67652.41;4976396;28;20081;-83
2022/12/25 07:11:26;;;;;;;22.25;13.27;;;;;;;;;;4982878;28;20042;-84
2022/12/25 07:13:51;;;;;;;18.95;12.60;;;;;;;7.98;100.00;67655.63;4989436;28;20469;-83
2022/12/25 07:16:17;;;;;;;19.08;11.13;;;;;;;7.98;100.00;67652.41;4978721;28;20045;-82
2022/12/25 07:18:43;;;;;;;14.95;12.32;;;;;;;8.01;100.00;67658.44;5001668;28;20113;-84
2022/12/25 07:21:13;;;;;;;16.95;11.15;;;;;;;8.04;100.00;67661.84;4979769;28;20077;-82
2022/12/25 07:23:38;;;;;;;16.13;11.57;;;;;;;;;;4978866;28;20050;-82
2022/12/25 07:26:04;;;;;;;14.40;10.60;;;;;;;8.08;100.00;67666.94;4982427;28;20556;-82
2022/12/25 07:28:30;;;;;;;15.82;10.73;;;;;;;8.09;100.00;67667.50;4970767;28;20388;-83
2022/12/25 07:31:08;;;;;;;13.75;10.82;;;;;;;8.12;100.00;67668.81;4994512;28;20034;-83
2022/12/25 07:33:34;;;;;;;18.38;9.90;;;;;;;8.14;100.00;67673.16;4999380;28;20104;-84
2022/12/25 07:35:59;;;;;;;16.50;8.90;;;;;;;8.17;100.00;67673.34;4986844;28;20038;-82
2022/12/25 07:38:25;;;;;;;16.95;9.90;;;;;;;;;;4989006;28;20045;-83
2022/12/25 07:40:50;;;;;;;14.68;10.30;;;;;;;8.20;100.00;67679.97;4985849;28;20046;-82
2022/12/25 07:43:16;;;;;;;13.07;8.25;;;;;;;8.22;100.00;67681.66;4979609;28;20051;-82
2022/12/25 07:45:41;;;;;;;14.27;8.55;;;;;;;8.21;100.00;67680.53;4984765;28;20030;-82
2022/12/25 07:48:07;;;;;;;14.60;9.93;;;;;;;8.21;100.00;67680.53;4985599;28;20045;-84
2022/12/25 07:50:32;;;;;;;19.20;9.57;;;;;;;;;;4978096;28;20090;-84
2022/12/25 07:52:57;;;;;;;14.48;8.20;;;;;;;8.24;100.00;67681.84;4991086;28;20046;-84
2022/12/25 07:55:23;;;;;;;13.90;9.05;;;;;;;8.24;100.00;67681.28;4988530;28;20046;-83
2022/12/25 07:57:48;;;;;;;20.05;12.05;;;;;;;8.25;100.00;67690.94;4981997;28;20122;-82
2022/12/25 08:00:14;;;;;;;18.80;10.98;;;;;;;;;;4983317;28;20141;-84
2022/12/25 08:02:39;;;;;;;16.95;9.52;;;;;;;8.24;100.00;67683.94;4983822;28;20058;-83
2022/12/25 08:05:06;;;;;;;17.83;10.45;;;;;;;8.24;100.00;67684.50;4983873;28;20395;-82
2022/12/25 08:07:31;;;;;;;17.52;9.15;;;;;;;8.23;100.00;67683.38;4981263;28;20053;-84
2022/12/25 08:09:56;;;;;;;14.85;9.88;;;;;;;;;;4981376;28;20038;-84
2022/12/25 08:12:22;;;;;;;16.77;9.23;;;;;;;8.25;100.00;67682.41;4994525;28;20043;-83
2022/12/25 08:14:47;;;;;;;16.80;9.35;;;;;;;;;;4984682;28;20049;-84
2022/12/25 08:17:12;;;;;;;16.63;9.63;;;;;;;;;;4981687;28;20061;-84
2022/12/25 08:19:37;;;;;;;14.95;8.30;;;;;;;8.28;100.00;67683.16;4992258;28;20049;-84
2022/12/25 08:22:03;;;;;;;15.45;8.95;;;;;;;8.29;100.00;67694.91;4989845;28;20434;-84
2022/12/25 08:24:28;;;;;;;20.08;9.45;;;;;;;;;;4992210;28;20929;-82
2022/12/25 08:26:53;;;;;;;14.52;8.68;;;;;;;8.33;100.00;67691.47;4993348;28;20050;-82
2022/12/25 08:29:19;;;;;;;17.50;9.18;;;;;;;8.32;100.00;67690.34;4983858;28;20718;-82
2022/12/25 08:31:44;;;;;;;15.43;8.48;;;;;;;8.33;100.00;67691.47;4988607;28;20088;-82
2022/12/25 08:34:10;;;;;;;13.15;8.50;;;;;;;8.35;100.00;67696.97;4989912;28;20038;-83
2022/12/25 08:36:36;;;;;;;18.05;7.65;;;;;;;8.34;100.00;67695.84;4986333;28;20039;-82
2022/12/25 08:39:02;;;;;;;15.68;7.57;;;;;;;8.36;100.00;67698.09;4987957;28;20418;-82
2022/12/25 08:41:27;;;;;;;13.52;7.88;;;;;;;8.37;100.00;67698.66;4986958;28;20042;-84
2022/12/25 08:43:53;;;;;;;9.95;7.03;;;;;;;8.37;100.00;67696.00;4991157;28;20050;-82
2022/12/25 08:46:18;;;;;;;11.70;8.50;;;;;;;8.36;100.00;67698.09;4985910;28;20038;-83
2022/12/25 08:48:45;;;;;;;14.43;8.27;;;;;;;8.35;100.00;67696.41;4988313;28;20096;-83
2022/12/25 08:51:13;;;;;;;15.02;8.68;;;;;;;8.33;100.00;67692.03;4996161;28;20077;-82
2022/12/25 08:53:43;;;;;;;13.75;7.57;;;;;;;8.32;100.00;67693.56;4991375;28;20057;-82
2022/12/25 08:56:09;;;;;;;17.90;8.75;;;;;;;8.30;100.00;67688.63;4996867;28;20042;-84
2022/12/25 08:58:35;;;;;;;15.25;9.05;;;;;;;8.29;100.00;67689.59;4990918;28;20057;-83
2022/12/25 09:01:00;;;;;;;16.38;9.60;;;;;;;8.26;100.00;67680.91;4988457;28;20109;-82
2022/12/25 09:03:26;;;;;;;16.73;9.05;;;;;;;8.25;100.00;67682.41;4984722;28;20113;-82
2022/12/25 09:05:52;;;;;;;13.88;9.10;;;;;;;8.23;100.00;67682.78;4991994;28;20038;-82
2022/12/25 09:08:18;;;;;;;16.48;9.95;;;;;;;8.22;100.00;67681.66;4994380;28;20047;-82
2022/12/25 09:10:44;;;;;;;14.77;9.65;;;;;;;;;;4983790;28;20046;-82
2022/12/25 09:13:10;;;;;;;12.57;9.25;;;;;;;8.21;100.00;67681.09;4981761;28;20069;-82
2022/12/25 09:15:37;;;;;;;15.02;9.90;;;;;;;8.20;100.00;67679.97;4985703;28;20038;-83
2022/12/25 09:18:03;;;;;;;14.38;9.95;;;;;;;8.20;100.00;67677.31;4983575;28;20525;-82
2022/12/25 09:20:28;;;;;;;16.08;8.75;;;;;;;;;;4990287;28;20058;-82
2022/12/25 09:22:53;;;;;;;17.38;9.52;;;;;;;8.18;100.00;67677.69;5007982;28;20065;-82
2022/12/25 09:25:19;;;;;;;14.85;10.18;;;;;;;;;;4983489;28;20142;-81
2022/12/25 09:27:44;;;;;;;13.35;9.40;;;;;;;8.18;100.00;67672.41;4997886;28;20046;-82
2022/12/25 09:30:10;;;;;;;26.30;14.23;;;;;;;;;;4990432;28;20506;-83
2022/12/25 09:32:35;;;;;;;20.65;12.68;;;;;;;8.22;100.00;67676.91;4991237;28;20065;-82
2022/12/25 09:35:01;;;;;;;14.52;10.15;;;;;;;8.24;100.00;67684.50;4971694;28;20417;-81
2022/12/25 09:37:27;;;;;;;14.02;8.80;;;;;;;;;;4977849;28;20043;-82
2022/12/25 09:39:52;;;;;;;15.63;8.77;;;;;;;8.26;100.00;67686.22;4990065;28;20038;-83
2022/12/25 09:42:33;;;;;;;12.30;7.95;;;;;;;8.27;100.00;67685.25;4976523;28;20062;-81
2022/12/25 09:45:23;;;;;;;10.90;7.88;;;;;;;8.28;100.00;67688.47;4988276;28;20066;-82
2022/12/25 09:47:52;;;;;;;14.30;8.40;;;;;;;8.29;100.00;67690.16;4995964;28;20039;-82
2022/12/25 09:50:36;;;;;;;14.73;7.72;;;;;;;8.28;100.00;67689.00;4982259;28;20067;-83
2022/12/25 09:53:09;;;;;;;14.80;8.35;;;;;;;8.29;100.00;67690.16;4987878;28;20571;-81
2022/12/25 09:55:42;;;;;;;13.32;8.57;;;;;;;8.28;100.00;67686.38;4991278;28;20105;-81
2022/12/25 09:58:13;;;;;;;13.30;8.00;;;;;;;8.28;100.00;67689.00;4978533;28;20038;-82
2022/12/25 10:00:51;;;;;;;14.20;8.45;;;;;;;8.29;100.00;67690.16;4987748;28;20050;-82
2022/12/25 10:03:20;;;;;;;13.70;7.38;;;;;;;;;;4982746;28;20058;-82
2022/12/25 10:06:03;;;;;;;13.10;7.72;;;;;;;8.32;100.00;67690.91;4981322;28;20039;-83
2022/12/25 10:08:28;;;;;;;15.57;7.55;;;;;;;;;;4983345;28;20121;-81
2022/12/25 10:10:59;;;;;;;13.37;7.33;;;;;;;;;;4981817;28;20126;-82
2022/12/25 10:13:42;;;;;;;14.68;8.05;;;;;;;8.32;100.00;67693.00;4971353;28;20612;-82
2022/12/25 10:16:26;;;;;;;15.27;7.28;;;;;;;8.29;100.00;67687.50;4972437;28;20101;-83
2022/12/25 10:19:06;;;;;;;12.40;7.60;;;;;;;8.27;100.00;67682.59;4986728;28;20045;-82
2022/12/25 10:21:32;;;;;;;18.10;9.10;;;;;;;8.24;100.00;67683.94;4988047;28;20050;-82
2022/12/25 10:23:57;;;;;;;14.27;8.43;;;;;;;8.22;100.00;67682.22;4985780;28;20042;-82
2022/12/25 10:26:24;;;;;;;16.30;8.20;;;;;;;8.21;100.00;67675.22;4986320;28;20078;-83
2022/12/25 10:28:56;;;;;;;18.00;10.02;;;;;;;;;;4975497;28;20387;-83
2022/12/25 10:31:25;;;;;;;19.13;10.70;;;;;;;8.16;100.00;67672.22;4987101;28;20065;-82
2022/12/25 10:33:51;;;;;;;;;;;;;;;8.15;100.00;67674.31;4978921;28;20070;-82
2022/12/25 10:36:18;;;;;;;15.73;10.75;;;;;;;;;;4987444;28;20321;-81
2022/12/25 10:38:43;;;;;;;17.45;12.07;;;;;;;8.06;100.00;67662.03;4978291;28;20406;-82
2022/12/25 10:41:28;;;;;;;15.07;10.98;;;;;;;8.07;100.00;67665.81;4968128;28;20042;-82
2022/12/25 10:43:55;;;;;;;20.30;15.82;;;;;;;8.06;100.00;67662.03;4980824;28;20058;-82
2022/12/25 10:46:25;;;;;;;14.98;10.73;;;;;;;8.07;100.00;67665.25;4987155;28;20046;-83
2022/12/25 10:48:57;;;;;;;16.58;12.07;;;;;;;8.08;100.00;67666.38;4993087;28;20041;-82
2022/12/25 10:51:30;;;;;;;17.98;12.27;;;;;;;8.07;100.00;67659.94;4983195;28;20066;-83
2022/12/25 10:53:56;;;;;;;18.88;11.18;;;;;;;8.07;100.00;67665.81;4976269;28;20053;-83
2022/12/25 10:56:21;;;;;;;19.33;12.57;;;;;;;8.06;100.00;67662.03;4973990;28;20054;-83
2022/12/25 10:58:46;;;;;;;18.98;10.23;;;;;;;8.07;100.00;67662.59;4981436;28;20062;-83
2022/12/25 11:01:12;;;;;;;17.20;12.18;;;;;;;8.07;100.00;67665.25;4991499;28;20041;-81
2022/12/25 11:03:40;;;;;;;17.08;12.50;;;;;;;8.06;100.00;67664.13;4987789;28;20067;-82
2022/12/25 11:06:19;;;;;;;20.52;14.10;;;;;;;8.06;100.00;67664.13;4980334;28;20034;-83
2022/12/25 11:08:52;;;;;;;15.38;12.82;;;;;;;8.05;100.00;67662.97;5001560;28;20057;-83
2022/12/25 11:11:19;;;;;;;22.42;13.98;;;;;;;8.02;100.00;67659.56;4998114;28;20180;-83
2022/12/25 11:13:51;;;;;;;18.75;11.80;;;;;;;8.03;100.00;67660.72;4988849;28;20043;-83
2022/12/25 11:16:30;;;;;;;18.35;12.35;;;;;;;8.05;100.00;67662.97;4995756;28;20626;-82
2022/12/25 11:18:56;;;;;;;20.80;12.48;;;;;;;8.04;100.00;67659.75;4994253;28;20038;-82
2022/12/25 11:21:30;;;;;;;20.23;13.10;;;;;;;8.06;100.00;67664.13;5006375;28;20072;-82
2022/12/25 11:24:00;;;;;;;20.40;14.05;;;;;;;;;;4994254;28;20109;-81
2022/12/25 11:26:28;;;;;;;18.25;13.07;;;;;;;8.07;100.00;67660.50;4980630;28;20046;-82
2022/12/25 11:28:55;;;;;;;18.05;14.52;;;;;;;8.08;100.00;67666.94;4977904;28;20050;-83
2022/12/25 11:31:28;;;;;;;28.63;21.73;;;;;;;8.08;100.00;67664.28;4968259;28;20039;-82
2022/12/25 11:33:53;;;;;;;31.48;18.95;;;;;;;8.09;100.00;67668.06;4982044;28;20051;-82
2022/12/25 11:36:28;;;;;;;20.67;15.98;;;;;;;8.11;100.00;67669.75;4982396;28;20120;-82
2022/12/25 11:38:53;;;;;;;29.00;17.25;;;;;;;;;;4982946;28;20582;-82
2022/12/25 11:41:22;;;;;;;26.75;17.98;;;;;;;8.09;100.00;67665.44;4981863;28;20050;-83
2022/12/25 11:43:58;;;;;;;23.98;16.83;;;;;;;8.10;100.00;67668.63;4983627;28;20058;-82
2022/12/25 11:46:30;;;;;;;20.92;14.40;;;;;;;8.10;100.00;67668.63;4989299;28;20055;-81
2022/12/25 11:49:01;;;;;;;28.20;16.55;;;;;;;8.10;100.00;67669.19;4978908;28;20089;-83
2022/12/25 11:51:34;;;;;;;35.38;22.45;;;;;;;8.12;100.00;67676.22;4983095;28;20061;-82
2022/12/25 11:54:11;;;;;;;23.02;17.40;;;;;;;8.10;100.00;67666.56;4978332;28;20114;-83
2022/12/25 11:56:36;;;;;;;30.77;18.98;;;;;;;8.10;100.00;67668.63;4995380;28;20051;-83
2022/12/25 11:59:11;;;;;;;27.23;19.25;;;;;;;8.11;100.00;67669.75;4983578;28;20621;-83
2022/12/25 12:01:47;;;;;;;32.75;23.15;;;;;;;8.10;100.00;67669.19;5003564;28;20038;-84
2022/12/25 12:04:22;;;;;;;37.28;26.30;;;;;;;8.08;100.00;67666.38;4983709;28;20043;-83
2022/12/25 12:06:54;;;;;;;28.80;18.70;;;;;;;8.08;100.00;67666.94;4989904;28;20039;-82
2022/12/25 12:09:37;;;;;;;30.02;20.35;;;;;;;8.06;100.00;67664.13;4982680;28;20050;-82
2022/12/25 12:12:30;;;;;;;32.78;22.73;;;;;;;8.07;100.00;67665.25;4991939;28;20066;-83
2022/12/25 12:15:02;;;;;;;35.78;22.52;;;;;;;8.04;100.00;67661.84;4986100;28;20062;-82
2022/12/25 12:17:28;;;;;;;38.70;24.38;;;;;;;8.04;100.00;67661.84;4985879;28;20503;-83
2022/12/25 12:19:53;;;;;;;34.55;22.23;;;;;;;8.04;100.00;67661.84;4981676;28;20061;-83
2022/12/25 12:22:24;;;;;;;30.48;21.60;;;;;;;8.05;100.00;67657.66;4984441;28;20047;-82
2022/12/25 12:24:57;;;;;;;34.22;23.67;;;;;;;8.05;100.00;67662.97;4985689;28;20038;-83
2022/12/25 12:27:25;;;;;;;31.50;23.10;;;;;;;;;;4984452;28;20053;-82
2022/12/25 12:29:56;;;;;;;31.85;22.42;;;;;;;;;;4985975;28;20050;-82
2022/12/25 12:32:35;;;;;;;30.42;23.33;;;;;;;8.05;100.00;67662.97;4989622;28;20039;-82
2022/12/25 12:35:11;;;;;;;27.90;20.92;;;;;;;8.04;100.00;67662.41;4972760;28;20054;-84
2022/12/25 12:37:39;;;;;;;38.28;23.90;;;;;;;8.05;100.00;67662.97;4977664;28;20658;-82
2022/12/25 12:40:06;;;;;;;29.80;22.15;;;;;;;;;;4976316;28;20406;-82
2022/12/25 12:42:39;;;;;;;34.70;21.98;;;;;;;8.05;100.00;67662.97;4984182;28;20729;-82
2022/12/25 12:45:25;;;;;;;37.30;25.58;;;;;;;8.04;100.00;67656.56;4988884;28;20054;-83
2022/12/25 12:47:51;;;;;;;38.58;25.33;;;;;;;;;;4991907;28;20062;-83
2022/12/25 12:50:39;;;;;;;45.40;25.83;;;;;;;8.04;100.00;67659.19;4979301;28;20043;-84
2022/12/25 12:53:27;;;;;;;35.17;24.08;;;;;;;8.04;100.00;67659.19;4977679;28;20137;-83
2022/12/25 12:55:54;;;;;;;33.88;23.40;;;;;;;8.02;100.00;67660.13;5007403;28;20137;-84
2022/12/25 12:58:39;;;;;;;35.63;26.50;;;;;;;;;;5012499;28;20042;-83
2022/12/25 13:01:12;;;;;;;38.92;26.80;;;;;;;8.04;100.00;67662.41;4991444;28;20047;-82
2022/12/25 13:04:28;;;;;;;36.17;24.50;;;;;;;8.03;100.00;67660.72;4987151;28;20050;-83
2022/12/25 13:07:11;;;;;;;34.45;24.45;;;;;;;8.00;100.00;67657.31;5005674;28;20414;-83
2022/12/25 13:09:48;;;;;;;34.72;24.88;;;;;;;8.01;100.00;67659.00;4986064;28;20388;-83
2022/12/25 13:12:14;;;;;;;40.50;27.85;;;;;;;;;;4983723;28;20042;-83
2022/12/25 13:14:45;;;;;;;37.67;27.63;;;;;;;8.03;100.00;67666.59;4982809;28;20053;-83
2022/12/25 13:17:16;;;;;;;51.42;31.73;;;;;;;8.05;100.00;67662.97;4985591;28;20561;-83
2022/12/25 13:19:43;;;;;;;48.63;31.98;;;;;;;8.04;100.00;67667.16;4983795;28;20125;-83
2022/12/25 13:22:23;;;;;;;56.95;37.75;;;;;;;8.04;100.00;67662.41;4989952;28;20046;-83
2022/12/25 13:24:55;;;;;;;43.50;32.38;;;;;;;8.03;100.00;67660.72;4984589;28;20042;-84
2022/12/25 13:27:21;;;;;;;37.58;26.80;;;;;;;;;;4982838;28;20038;-83
2022/12/25 13:29:47;;;;;;;48.20;33.63;;;;;;;8.07;100.00;67662.59;4984184;28;20718;-84
2022/12/25 13:32:30;;;;;;;49.78;34.60;;;;;;;8.07;100.00;67665.25;4982452;28;20039;-82
2022/12/25 13:34:57;;;;;;;47.25;31.55;;;;;;;8.05;100.00;67660.88;4983564;28;20107;-82
2022/12/25 13:37:26;;;;;;;41.28;29.45;;;;;;;8.06;100.00;67664.69;4985674;28;20042;-83
2022/12/25 13:40:05;;;;;;;52.03;29.20;;;;;;;8.08;100.00;67663.72;4997313;28;20042;-84
2022/12/25 13:42:35;;;;;;;52.28;32.22;;;;;;;8.07;100.00;67665.25;4986930;28;20047;-83
2022/12/25 13:45:06;;;;;;;42.33;28.25;;;;;;;8.08;100.00;67666.38;4987211;28;20045;-82